Airfield :
LOGIN :

Register | Disclaimer

   EN    FR    IT 

 










Legend :    VFR   Marginal VFR   IFR   Intensive IFR   Very Intensive IFR
Visi :
Ceiling :
>= 8 km
>= 3000ft
5 to 8 km
1000 to 3000 ft
1500m to 5 km
500 to 1000 ft
800 to 1500m
200 to 500 ft
< 800m
< 200 ft
Symbols :   Thunderstorms  Fog  Heavy snow  Heavy precipitations  Wind > 20 kt
SIGMETs :     Misc.  Thunderstorms  Icing  Turbulence  Mountain Waves  Volcanic Ashes






- Airport Elevation : 614 ft
- IATA code : CRL


EBCI - Charleroi

CURRENT METAR :
  • 290850Z 32004KT 280V030 9999 FEW025 BKN045 11/04 Q1017 NOSIG

EXPIRED METARs :
  • 290820Z 36005KT 340V040 9999 FEW025 SCT040 11/04 Q1017 NOSIG
  • 290750Z 35006KT 320V040 9999 FEW022 SCT030 10/04 Q1017 NOSIG
  • 290720Z 36006KT 310V040 9999 SCT019 SCT030 10/04 Q1017 NOSIG
  • 290650Z 01005KT 320V050 9999 FEW018 10/05 Q1017 NOSIG
  • 290620Z 34003KT 280V040 9999 SCT045 10/05 Q1017 NOSIG

TAF TAF EBCI
Valid from the 29 at 06:00 until the 30 at 12:00 UTC


290500Z 2906/3012 34005KT 9999 SCT025 SCT045
PROB30
TEMPO 2909/2916 36015KT 4000 SHRA BKN014 SCT020CB
PROB30
TEMPO 3002/3005 4000 BR



MET'MAP, your aeronautical weather chart ! - Copyright ORBIFLY December 2007 - Disclaimer

ORBIFLY MET'MAP TEAM :

Programming & Development : Alexandra Zaïnal
Original concept : Baudouin d'Aumeries
Technical & hardware support : Manuel Goepfert
Assistance : Marc-Olivier Méhu

Contact : metmap@orbifly.com




SOURCES & CREDITS :

   NOAA